Terminal Aerodrome Forecast
Issued by NWS Grand Rapids, MI

Home | Current Version | Previous Version | Text Only | Print | Product List | Glossary On
Versions: 1 2 3 4 5 6 7 8 9 10 11 12 13 14
000
FTUS43 KGRR 271142
TAFGRR
TAF
KGRR 271142Z 2712/2812 09007KT 6SM -SHRA OVC035
     FM271400 11007KT 5SM -SHRA BR VCTS OVC030CB
     FM271700 14009KT 3SM -SHRA BR VCTS OVC025CB
     FM271900 16011KT P6SM VCTS OVC035CB
     FM280800 22005KT 5SM BR OVC015=

USA.gov is the U.S. government's official web portal to all federal, state and local government web resources and services.